Varna, Bulgaria

3:36 PM EEST on September 05, 2015 (GMT +0300)
Varna - Izgrev | | Change Station
CLOSE
Current Station
Personal Weather Station
Location: Варна, Варна
Elevation: 400 ft
Nearby Weather Stations

Elev 400 ft 43.23 °N, 27.91 °E | Updated 6 seconds ago

Clear
Clear
79.3 °F
Feels Like 83 °F
N
11.5
Wind Variable Wind from SE
Gusts 11.5 mph

Today
High -- | Low -- °F
--% Chance of Precip.
Yesterday
High -- | Low -- °F
Precip. -- in
6:36 AM 7:37 PM
Waning Gibbous, 49% visible
Pressure 29.92 in
Visibility -9999.0 miles
Clouds
Heat Index 83 °F
Dew Point 72 °F
Humidity 78%
Rainfall 0.01 in
Snow Depth Not available.
UV Not available.
Pollen Not available.
Air Quality Not available.
Flu Activity Not available.
METAR LBWN 051230Z 10014KT CAVOK 28/23 Q1013 NOSIG
Pressure 29.92 in
Visibility -9999.0 miles
Clouds
Heat Index 83 °F
Dew Point 72 °F
Humidity 78%
Rainfall 0.01 in
Snow Depth Not available.
UV Not available.
Pollen Not available.
Air Quality Not available.
Flu Activity Not available.
METAR LBWN 051230Z 10014KT CAVOK 28/23 Q1013 NOSIG

10-Day Weather Forecast

×

Almanac

Astronomy

Sep. 05, 2015 Rise Set
Actual Time
Civil Twilight
Nautical Twilight
Astronomical Twilight
Moon
Length of Visible Light
Length of Day
Tomorrow will be .
, % of the Moon is Illuminated

Today's Extremes

Country Highs Country Lows

Community

WunderPhotos

Upload Photos

1,852,454 photos uploaded!

WunderBlogs® & News

Nearby

Air Quality

  Air Quality AQ Index Pollutant
Not available.

Snow Depth

Station Depth Elevation

Earthquake Activity

City Distance Mag. Time & Date
Minimum magnitude displayed is 2.5.

Coastal Water Temperatures

Place Temperature

Stations

Nearby Weather Stations

Station Location Temp. Windchill Dew Point Humidity Wind Precip. Elev Updated Type